createdAt,value
2023-05-22T00:01:19.368Z,48.40
2023-05-22T00:03:46.955Z,49.08
2023-05-22T00:06:15.105Z,48.89
2023-05-22T00:08:42.315Z,48.91
2023-05-22T00:11:09.939Z,49.41
2023-05-22T00:13:37.342Z,49.82
2023-05-22T00:16:04.724Z,50.04
2023-05-22T00:18:32.460Z,50.35
2023-05-22T00:20:59.663Z,50.49
2023-05-22T00:23:28.193Z,50.79
2023-05-22T00:25:55.785Z,50.83
2023-05-22T00:28:23.369Z,51.16
2023-05-22T00:30:50.601Z,51.47
2023-05-22T00:33:18.130Z,51.65
2023-05-22T00:35:45.736Z,51.75
2023-05-22T00:38:27.300Z,51.97
2023-05-22T00:40:54.906Z,52.34
2023-05-22T00:43:22.119Z,52.51
2023-05-22T00:45:49.610Z,52.83
2023-05-22T00:48:17.052Z,53.19
2023-05-22T00:50:44.259Z,52.95
2023-05-22T00:53:11.450Z,53.52
2023-05-22T00:55:38.934Z,53.51
2023-05-22T00:58:07.861Z,53.65
2023-05-22T01:00:38.403Z,53.67
2023-05-22T01:03:08.021Z,53.83
2023-05-22T01:05:35.719Z,54.05
2023-05-22T01:08:03.459Z,53.92
2023-05-22T01:10:31.000Z,54.01
2023-05-22T01:13:01.941Z,54.28
2023-05-22T01:15:35.518Z,54.38
2023-05-22T01:18:04.310Z,54.63
2023-05-22T01:20:38.209Z,54.40
2023-05-22T01:23:15.118Z,54.61
2023-05-22T01:25:42.274Z,54.69
2023-05-22T01:28:18.678Z,54.89
2023-05-22T01:31:21.587Z,55.25
2023-05-22T01:33:51.593Z,55.11
2023-05-22T01:36:20.321Z,55.39
2023-05-22T01:38:47.569Z,55.37
2023-05-22T01:41:15.083Z,55.04
2023-05-22T01:43:42.398Z,55.24
2023-05-22T01:46:09.588Z,55.41
2023-05-22T01:48:37.113Z,55.32
2023-05-22T01:51:14.298Z,55.08
2023-05-22T01:53:51.236Z,55.38
2023-05-22T01:56:30.618Z,55.43
2023-05-22T01:58:58.525Z,55.52
2023-05-22T02:01:26.066Z,55.56
2023-05-22T02:03:56.638Z,55.81
2023-05-22T02:06:25.801Z,55.97
2023-05-22T02:08:53.005Z,55.86
2023-05-22T02:11:21.606Z,55.91
2023-05-22T02:13:49.022Z,55.47
2023-05-22T02:16:16.813Z,55.23
2023-05-22T02:18:46.625Z,55.35
2023-05-22T02:21:13.994Z,55.14
2023-05-22T02:23:41.475Z,55.15
2023-05-22T02:26:08.705Z,55.35
2023-05-22T02:28:36.014Z,55.54
2023-05-22T02:31:03.795Z,55.72
2023-05-22T02:33:31.165Z,55.65
2023-05-22T02:35:58.399Z,55.48
2023-05-22T02:38:25.906Z,55.87
2023-05-22T02:40:53.394Z,55.68
2023-05-22T02:43:21.383Z,55.95
2023-05-22T02:45:48.908Z,55.72
2023-05-22T02:48:17.518Z,55.82
2023-05-22T02:50:45.121Z,55.74
2023-05-22T02:53:14.382Z,55.87
2023-05-22T02:55:41.905Z,55.91
2023-05-22T02:58:14.592Z,56.00
2023-05-22T03:00:42.187Z,56.02
2023-05-22T03:03:11.378Z,56.02
2023-05-22T03:05:40.032Z,55.89
2023-05-22T03:08:08.073Z,56.34
2023-05-22T03:10:35.292Z,56.20
2023-05-22T03:13:02.501Z,55.98
2023-05-22T03:15:30.022Z,56.18
2023-05-22T03:17:57.659Z,56.29
2023-05-22T03:20:24.887Z,56.52
2023-05-22T03:22:52.572Z,56.50
2023-05-22T03:25:21.549Z,56.38
2023-05-22T03:27:49.012Z,56.27
2023-05-22T03:30:17.010Z,56.68
2023-05-22T03:32:45.411Z,56.58
2023-05-22T03:35:15.489Z,56.79
2023-05-22T03:37:43.036Z,56.75
2023-05-22T03:40:10.598Z,56.49
2023-05-22T03:42:37.982Z,56.66
2023-05-22T03:45:05.884Z,56.80
2023-05-22T03:47:33.244Z,56.99
2023-05-22T03:50:00.531Z,56.48
2023-05-22T03:52:28.301Z,56.67
2023-05-22T03:54:55.630Z,56.72
2023-05-22T03:57:22.858Z,56.27
2023-05-22T03:59:50.433Z,56.65
2023-05-22T04:02:17.679Z,56.87
2023-05-22T04:04:46.442Z,56.79
2023-05-22T04:07:13.831Z,56.59
2023-05-22T04:09:41.367Z,56.68
2023-05-22T04:12:08.982Z,56.28
2023-05-22T04:14:36.214Z,56.20
2023-05-22T04:17:03.498Z,55.80
2023-05-22T04:19:31.051Z,54.99
2023-05-22T04:21:59.018Z,55.68
2023-05-22T04:24:27.567Z,56.09
2023-05-22T04:26:56.153Z,56.09
2023-05-22T04:29:24.300Z,56.30
2023-05-22T04:31:54.318Z,55.94
2023-05-22T04:34:21.887Z,55.98
2023-05-22T04:36:49.316Z,56.11
2023-05-22T04:39:18.080Z,56.13
2023-05-22T04:41:45.973Z,56.25
2023-05-22T04:44:14.325Z,55.78
2023-05-22T04:46:42.294Z,55.78
2023-05-22T04:49:10.456Z,55.42
2023-05-22T04:51:37.792Z,55.08
2023-05-22T04:54:05.105Z,55.09
2023-05-22T04:56:36.784Z,55.14
2023-05-22T04:59:05.493Z,55.01
2023-05-22T05:01:35.211Z,54.90
2023-05-22T05:04:03.799Z,54.75
2023-05-22T05:06:31.212Z,54.38
2023-05-22T05:08:58.734Z,53.73
2023-05-22T05:11:26.074Z,52.83
2023-05-22T05:13:53.286Z,52.81
2023-05-22T05:16:21.052Z,52.19
2023-05-22T05:18:48.313Z,51.43
2023-05-22T05:21:15.664Z,50.97
2023-05-22T05:23:44.356Z,50.32
2023-05-22T05:26:11.599Z,49.74
2023-05-22T05:28:38.959Z,49.05
2023-05-22T05:31:07.822Z,49.09
2023-05-22T05:33:36.140Z,48.35
2023-05-22T05:36:04.028Z,47.76
2023-05-22T05:38:32.304Z,47.54
2023-05-22T05:41:00.117Z,47.26
2023-05-22T05:43:27.565Z,47.79
2023-05-22T05:45:55.794Z,48.26
2023-05-22T05:48:22.997Z,46.93
2023-05-22T05:50:50.503Z,45.63
2023-05-22T05:53:18.702Z,45.49
2023-05-22T05:55:47.009Z,45.11
2023-05-22T05:58:14.564Z,42.64
2023-05-22T06:00:42.485Z,41.95
2023-05-22T06:03:10.473Z,41.41
2023-05-22T06:05:40.268Z,40.89
2023-05-22T06:08:08.689Z,42.98
2023-05-22T06:10:36.202Z,41.96
2023-05-22T06:13:10.045Z,39.81
2023-05-22T06:15:37.523Z,39.00
2023-05-22T06:18:05.268Z,37.90
2023-05-22T06:20:32.822Z,37.40
2023-05-22T06:23:00.779Z,37.11
2023-05-22T06:25:29.970Z,36.92
2023-05-22T06:27:58.041Z,35.79
2023-05-22T06:30:39.005Z,35.70
2023-05-22T06:33:09.036Z,33.25
2023-05-22T06:35:36.911Z,33.16
2023-05-22T06:38:04.925Z,32.85
2023-05-22T06:40:32.516Z,32.68
2023-05-22T06:43:01.005Z,32.10
2023-05-22T06:45:28.519Z,32.20
2023-05-22T06:47:57.244Z,32.11
2023-05-22T06:50:25.473Z,31.04
2023-05-22T06:52:54.028Z,30.49
2023-05-22T06:55:21.856Z,30.63
2023-05-22T06:57:50.107Z,30.27
2023-05-22T07:02:47.907Z,29.61
2023-05-22T07:05:15.680Z,29.44
2023-05-22T07:07:43.958Z,29.25
2023-05-22T07:10:11.190Z,29.44
2023-05-22T07:12:38.697Z,30.17
2023-05-22T07:15:06.285Z,30.06
2023-05-22T07:17:34.791Z,30.19
2023-05-22T07:20:02.375Z,30.97
2023-05-22T07:22:31.112Z,30.90
2023-05-22T07:24:58.416Z,31.51
2023-05-22T07:27:26.653Z,31.39
2023-05-22T07:29:54.166Z,31.66
2023-05-22T07:32:21.392Z,32.41
2023-05-22T07:34:48.927Z,32.44
2023-05-22T07:37:16.578Z,32.59
2023-05-22T07:39:46.497Z,32.57
2023-05-22T07:42:15.034Z,32.49
2023-05-22T07:44:43.154Z,32.54
2023-05-22T07:47:10.513Z,32.07
2023-05-22T07:49:39.253Z,32.49
2023-05-22T07:52:06.788Z,32.40
2023-05-22T07:54:34.022Z,32.25
2023-05-22T07:57:04.393Z,32.37
2023-05-22T07:59:33.686Z,33.79
2023-05-22T08:02:01.067Z,33.86
2023-05-22T08:04:30.047Z,33.97
2023-05-22T08:06:57.392Z,34.51
2023-05-22T08:09:24.706Z,34.16
2023-05-22T08:11:52.207Z,33.33
2023-05-22T08:14:21.211Z,33.18
2023-05-22T08:16:48.660Z,32.39
2023-05-22T08:19:16.630Z,32.78
2023-05-22T08:21:43.941Z,33.61
2023-05-22T08:24:11.290Z,33.33
2023-05-22T08:26:40.413Z,33.26
2023-05-22T08:29:08.046Z,33.79
2023-05-22T08:31:36.065Z,33.32
2023-05-22T08:34:04.870Z,33.27
2023-05-22T08:36:33.912Z,34.02
2023-05-22T08:39:01.626Z,33.25
2023-05-22T08:41:29.636Z,32.09
2023-05-22T08:43:57.243Z,31.88
2023-05-22T08:46:29.044Z,31.19
2023-05-22T08:48:57.247Z,31.40
2023-05-22T08:51:31.543Z,31.30
2023-05-22T08:53:59.123Z,31.82
2023-05-22T08:56:28.589Z,32.25
2023-05-22T08:58:56.731Z,30.99
2023-05-22T09:01:24.263Z,30.57
2023-05-22T09:03:51.766Z,30.84
2023-05-22T09:06:19.144Z,31.16
2023-05-22T09:08:46.737Z,31.64
2023-05-22T09:11:13.964Z,31.68
2023-05-22T09:13:41.534Z,32.05
2023-05-22T09:16:09.948Z,31.45
2023-05-22T09:18:37.955Z,31.73
2023-05-22T09:21:11.281Z,31.25
2023-05-22T09:23:42.253Z,31.87
2023-05-22T09:26:09.454Z,31.61
2023-05-22T09:28:36.896Z,31.67
2023-05-22T09:31:04.760Z,32.00
2023-05-22T09:33:32.529Z,31.35
2023-05-22T09:36:00.249Z,31.73
2023-05-22T09:38:28.946Z,31.77
2023-05-22T09:40:56.738Z,31.66
2023-05-22T09:43:25.464Z,31.61
2023-05-22T09:45:56.278Z,31.67
2023-05-22T09:48:23.654Z,30.77
2023-05-22T09:50:50.996Z,31.72
2023-05-22T09:53:18.942Z,31.08
2023-05-22T09:55:49.209Z,31.08
2023-05-22T09:58:18.190Z,32.47
2023-05-22T10:00:46.364Z,32.33
2023-05-22T10:03:15.913Z,31.26
2023-05-22T10:05:47.823Z,30.89
2023-05-22T10:08:16.955Z,30.39
2023-05-22T10:10:45.949Z,30.73
2023-05-22T10:13:13.277Z,30.34
2023-05-22T10:15:40.761Z,30.36
2023-05-22T10:18:08.006Z,30.07
2023-05-22T10:20:35.729Z,30.92
2023-05-22T10:23:03.982Z,30.32
2023-05-22T10:25:31.182Z,29.70
2023-05-22T10:27:58.856Z,29.63
2023-05-22T10:30:26.411Z,28.87
2023-05-22T10:33:10.080Z,29.37
2023-05-22T10:35:37.707Z,29.13
2023-05-22T10:38:24.051Z,29.33
2023-05-22T10:40:51.713Z,29.84
2023-05-22T10:43:19.221Z,29.65
2023-05-22T10:45:46.631Z,29.99
2023-05-22T10:48:14.182Z,29.53
2023-05-22T10:50:50.723Z,29.37
2023-05-22T10:53:18.191Z,29.37
2023-05-22T10:55:49.330Z,29.21
2023-05-22T10:58:17.278Z,29.07
2023-05-22T11:00:45.076Z,28.66
2023-05-22T11:03:17.695Z,28.70
2023-05-22T11:05:51.951Z,29.95
2023-05-22T11:08:25.652Z,30.89
2023-05-22T11:10:53.515Z,30.96
2023-05-22T11:13:20.770Z,30.49
2023-05-22T11:15:48.204Z,29.61
2023-05-22T11:18:16.388Z,29.04
2023-05-22T11:20:44.404Z,30.07
2023-05-22T11:23:11.656Z,30.31
2023-05-22T11:25:40.282Z,30.83
2023-05-22T11:28:07.901Z,29.46
2023-05-22T11:30:35.222Z,29.50
2023-05-22T11:33:02.962Z,30.04
2023-05-22T11:35:30.875Z,30.20
2023-05-22T11:37:58.913Z,29.89
2023-05-22T11:40:26.955Z,29.31
2023-05-22T11:42:54.340Z,29.19
2023-05-22T11:45:21.874Z,29.07
2023-05-22T11:47:49.786Z,28.84
2023-05-22T11:50:25.916Z,29.12
2023-05-22T11:53:03.098Z,28.81
2023-05-22T11:55:30.401Z,29.24
2023-05-22T11:57:58.017Z,29.72
2023-05-22T12:00:26.184Z,29.31
2023-05-22T12:02:54.559Z,29.43
2023-05-22T12:05:21.906Z,29.93
2023-05-22T12:07:49.104Z,29.02
2023-05-22T12:10:16.696Z,29.08
2023-05-22T12:12:44.107Z,28.98
2023-05-22T12:15:11.453Z,28.23
2023-05-22T12:17:39.892Z,28.51
2023-05-22T12:20:07.395Z,28.49
2023-05-22T12:22:40.449Z,29.07
2023-05-22T12:25:12.785Z,28.62
2023-05-22T12:27:40.073Z,28.43
2023-05-22T12:30:12.419Z,28.02
2023-05-22T12:32:40.065Z,28.20
2023-05-22T12:35:14.574Z,28.06
2023-05-22T12:37:47.429Z,27.31
2023-05-22T12:40:14.980Z,28.31
2023-05-22T12:42:42.236Z,28.74
2023-05-22T12:45:09.616Z,28.26
2023-05-22T12:47:37.147Z,28.13
2023-05-22T12:50:04.467Z,28.65
2023-05-22T12:52:31.863Z,29.30
2023-05-22T12:54:59.367Z,30.08
2023-05-22T12:57:26.624Z,28.86
2023-05-22T12:59:53.873Z,27.95
2023-05-22T13:02:21.341Z,28.83
2023-05-22T13:04:48.607Z,28.40
2023-05-22T13:07:16.001Z,29.10
2023-05-22T13:09:43.522Z,29.60
2023-05-22T13:12:11.301Z,29.19
2023-05-22T13:14:40.644Z,29.13
2023-05-22T13:17:08.448Z,28.45
2023-05-22T13:19:36.164Z,28.43
2023-05-22T13:22:03.526Z,28.16
2023-05-22T13:24:31.056Z,27.98
2023-05-22T13:26:58.254Z,27.66
2023-05-22T13:29:25.538Z,28.22
2023-05-22T13:31:53.021Z,28.08
2023-05-22T13:34:20.526Z,28.07
2023-05-22T13:36:47.911Z,28.58
2023-05-22T13:39:15.409Z,28.16
2023-05-22T13:41:42.630Z,28.45
2023-05-22T13:44:09.885Z,28.99
2023-05-22T13:46:39.990Z,28.87
2023-05-22T13:49:08.103Z,29.41
2023-05-22T13:51:35.719Z,29.64
2023-05-22T13:54:03.660Z,29.09
2023-05-22T13:56:31.140Z,29.04
2023-05-22T13:58:58.414Z,29.56
2023-05-22T14:01:25.983Z,29.34
2023-05-22T14:03:53.594Z,30.13
2023-05-22T14:06:21.084Z,28.61
2023-05-22T14:08:48.385Z,28.36
2023-05-22T14:11:18.183Z,28.05
2023-05-22T14:13:45.439Z,28.84
2023-05-22T14:16:12.738Z,28.58
2023-05-22T14:18:40.410Z,28.54
2023-05-22T14:21:07.669Z,28.67
2023-05-22T14:23:34.958Z,28.59
2023-05-22T14:26:02.420Z,28.64
2023-05-22T14:28:31.680Z,29.01
2023-05-22T14:30:58.955Z,29.36
2023-05-22T14:33:26.525Z,29.28
2023-05-22T14:35:53.808Z,29.91
2023-05-22T14:38:21.014Z,29.79
2023-05-22T14:40:48.596Z,29.02
2023-05-22T14:43:15.813Z,29.96
2023-05-22T14:45:43.682Z,30.08
2023-05-22T14:48:11.571Z,29.61
2023-05-22T14:50:38.799Z,29.44
2023-05-22T14:53:05.983Z,29.33
2023-05-22T14:55:33.574Z,29.35
2023-05-22T14:58:00.916Z,29.79
2023-05-22T15:00:28.404Z,30.59
2023-05-22T15:02:56.052Z,30.18
2023-05-22T15:05:23.447Z,29.75
2023-05-22T15:07:51.702Z,30.67
2023-05-22T15:10:19.618Z,30.86
2023-05-22T15:12:46.831Z,30.73
2023-05-22T15:15:14.360Z,30.87
2023-05-22T15:17:43.075Z,30.37
2023-05-22T15:20:10.845Z,30.61
2023-05-22T15:22:39.204Z,31.59
2023-05-22T15:25:07.697Z,31.72
2023-05-22T15:27:35.514Z,31.10
2023-05-22T15:30:03.367Z,30.78
2023-05-22T15:32:32.847Z,30.52
2023-05-22T15:35:00.457Z,31.16
2023-05-22T15:37:29.709Z,31.17
2023-05-22T15:39:59.752Z,31.02
2023-05-22T15:42:26.961Z,31.16
2023-05-22T15:44:54.155Z,33.57
2023-05-22T15:47:21.659Z,34.45
2023-05-22T15:49:48.887Z,34.04
2023-05-22T15:52:16.279Z,33.67
2023-05-22T15:54:43.836Z,32.45
2023-05-22T15:57:11.023Z,31.16
2023-05-22T15:59:38.242Z,31.06
2023-05-22T16:02:05.896Z,30.72
2023-05-22T16:04:33.397Z,30.59
2023-05-22T16:07:00.610Z,30.56
2023-05-22T16:09:27.812Z,30.89
2023-05-22T16:11:55.423Z,30.72
2023-05-22T16:14:22.649Z,31.98
2023-05-22T16:16:53.226Z,32.24
2023-05-22T16:19:41.345Z,33.60
2023-05-22T16:22:08.600Z,34.73
2023-05-22T16:24:36.127Z,34.34
2023-05-22T16:27:03.477Z,35.04
2023-05-22T16:29:32.453Z,36.05
2023-05-22T16:32:00.115Z,36.32
2023-05-22T16:34:28.127Z,37.13
2023-05-22T16:36:55.524Z,38.93
2023-05-22T16:39:23.019Z,39.71
2023-05-22T16:41:52.164Z,39.29
2023-05-22T16:44:21.036Z,40.31
2023-05-22T16:46:49.832Z,40.56
2023-05-22T16:49:17.089Z,40.95
2023-05-22T16:51:44.911Z,40.54
2023-05-22T16:54:33.060Z,40.09
2023-05-22T16:57:00.341Z,39.67
2023-05-22T16:59:28.073Z,39.32
2023-05-22T17:01:55.726Z,40.33
2023-05-22T17:04:23.000Z,41.68
2023-05-22T17:06:53.706Z,41.98
2023-05-22T17:09:21.804Z,42.44
2023-05-22T17:11:49.442Z,42.93
2023-05-22T17:14:16.965Z,42.99
2023-05-22T17:16:44.393Z,42.79
2023-05-22T17:19:11.707Z,43.88
2023-05-22T17:21:39.240Z,43.56
2023-05-22T17:24:12.052Z,43.86
2023-05-22T17:26:40.935Z,44.92
2023-05-22T17:29:08.935Z,45.13
2023-05-22T17:31:38.995Z,45.41
2023-05-22T17:34:07.124Z,45.05
2023-05-22T17:36:34.557Z,45.79
2023-05-22T17:39:01.966Z,46.14
2023-05-22T17:41:29.496Z,46.37
2023-05-22T17:43:57.298Z,46.75
2023-05-22T17:46:24.864Z,47.22
2023-05-22T17:48:52.534Z,47.36
2023-05-22T17:51:19.708Z,48.04
2023-05-22T17:53:46.911Z,48.76
2023-05-22T17:56:15.524Z,48.58
2023-05-22T17:58:42.739Z,48.96
2023-05-22T18:01:09.997Z,49.36
2023-05-22T18:03:37.742Z,49.09
2023-05-22T18:06:05.256Z,48.71
2023-05-22T18:08:32.525Z,48.01
2023-05-22T18:11:00.069Z,47.94
2023-05-22T18:13:27.802Z,48.37
2023-05-22T18:15:55.066Z,48.27
2023-05-22T18:18:31.199Z,47.99
2023-05-22T18:20:58.526Z,47.82
2023-05-22T18:23:26.096Z,48.31
2023-05-22T18:25:53.452Z,48.44
2023-05-22T18:28:23.410Z,48.61
2023-05-22T18:30:52.459Z,48.87
2023-05-22T18:33:20.196Z,49.13
2023-05-22T18:35:47.413Z,49.47
2023-05-22T18:38:15.134Z,49.64
2023-05-22T18:40:56.324Z,49.76
2023-05-22T18:43:28.271Z,50.23
2023-05-22T18:45:56.998Z,49.85
2023-05-22T18:48:25.009Z,49.89
2023-05-22T18:50:52.764Z,49.51
2023-05-22T18:53:21.879Z,49.24
2023-05-22T18:55:49.496Z,48.28
2023-05-22T18:58:16.681Z,48.42
2023-05-22T19:00:45.270Z,47.12
2023-05-22T19:03:14.068Z,46.88
2023-05-22T19:05:41.546Z,47.40
2023-05-22T19:08:08.737Z,47.17
2023-05-22T19:10:36.331Z,47.09
2023-05-22T19:13:03.946Z,46.94
2023-05-22T19:15:31.365Z,47.20
2023-05-22T19:17:58.879Z,47.61
2023-05-22T19:20:26.097Z,48.29
2023-05-22T19:22:54.924Z,48.91
2023-05-22T19:25:22.494Z,49.18
2023-05-22T19:27:49.820Z,49.51
2023-05-22T19:30:18.754Z,49.70
2023-05-22T19:32:46.779Z,49.88
2023-05-22T19:35:14.288Z,50.01
2023-05-22T19:37:41.536Z,50.23
2023-05-22T19:40:11.996Z,50.47
2023-05-22T19:42:39.943Z,50.83
2023-05-22T19:45:07.778Z,51.19
2023-05-22T19:47:35.381Z,51.52
2023-05-22T19:50:03.734Z,51.88
2023-05-22T19:52:30.951Z,52.37
2023-05-22T19:54:58.460Z,52.61
2023-05-22T19:57:27.232Z,52.75
2023-05-22T19:59:54.457Z,52.60
2023-05-22T20:02:22.151Z,52.70
2023-05-22T20:04:54.691Z,52.93
2023-05-22T20:07:21.961Z,52.93
2023-05-22T20:09:49.505Z,52.98
2023-05-22T20:12:19.362Z,52.97
2023-05-22T20:14:46.633Z,53.17
2023-05-22T20:17:14.229Z,53.51
2023-05-22T20:19:44.981Z,53.62
2023-05-22T20:22:12.246Z,53.73
2023-05-22T20:24:39.794Z,53.95
2023-05-22T20:27:07.144Z,54.23
2023-05-22T20:29:34.413Z,54.15
2023-05-22T20:32:02.018Z,54.24
2023-05-22T20:34:29.342Z,53.89
2023-05-22T20:36:58.416Z,53.83
2023-05-22T20:39:26.637Z,53.84
2023-05-22T20:41:54.351Z,53.91
2023-05-22T20:44:24.826Z,54.28
2023-05-22T20:46:53.351Z,54.53
2023-05-22T20:49:20.942Z,55.07
2023-05-22T20:51:50.028Z,54.73
2023-05-22T20:54:17.827Z,54.68
2023-05-22T20:56:45.050Z,54.71
2023-05-22T20:59:41.640Z,54.69
2023-05-22T21:02:09.232Z,54.79
2023-05-22T21:04:36.482Z,54.62
2023-05-22T21:07:04.926Z,54.64
2023-05-22T21:09:32.426Z,54.89
2023-05-22T21:11:59.607Z,54.74
2023-05-22T21:14:26.817Z,54.73
2023-05-22T21:16:54.360Z,54.57
2023-05-22T21:19:21.541Z,54.42
2023-05-22T21:21:48.809Z,54.44
2023-05-22T21:24:16.337Z,54.50
2023-05-22T21:26:43.523Z,54.51
2023-05-22T21:29:10.775Z,54.49
2023-05-22T21:31:38.265Z,54.43
2023-05-22T21:34:05.531Z,54.39
2023-05-22T21:36:32.711Z,54.49
2023-05-22T21:39:00.461Z,54.59
2023-05-22T21:41:27.884Z,54.51
2023-05-22T21:43:55.233Z,54.54
2023-05-22T21:46:22.763Z,54.85
2023-05-22T21:48:50.107Z,54.79
2023-05-22T21:51:17.477Z,54.94
2023-05-22T21:53:45.017Z,54.91
2023-05-22T21:56:12.246Z,54.71
2023-05-22T21:58:39.473Z,54.76
2023-05-22T22:01:06.972Z,54.91
2023-05-22T22:03:34.522Z,54.95
2023-05-22T22:06:01.861Z,54.87
2023-05-22T22:08:29.428Z,54.72
2023-05-22T22:10:58.352Z,54.77
2023-05-22T22:13:25.674Z,54.79
2023-05-22T22:15:53.568Z,54.90
2023-05-22T22:18:22.010Z,55.11
2023-05-22T22:20:55.154Z,55.34
2023-05-22T22:23:22.866Z,55.38
2023-05-22T22:25:50.085Z,55.13
2023-05-22T22:28:17.361Z,55.34
2023-05-22T22:30:44.951Z,55.19
2023-05-22T22:33:12.208Z,55.29
2023-05-22T22:35:40.473Z,55.24
2023-05-22T22:38:08.179Z,55.17
2023-05-22T22:40:35.488Z,55.14
2023-05-22T22:43:02.716Z,55.32
2023-05-22T22:45:30.306Z,55.14
2023-05-22T22:47:57.615Z,55.28
2023-05-22T22:50:24.865Z,55.34
2023-05-22T22:52:52.367Z,55.51
2023-05-22T22:55:19.792Z,55.56
2023-05-22T22:57:49.977Z,55.62
2023-05-22T23:00:17.941Z,55.64
2023-05-22T23:02:45.213Z,55.31
2023-05-22T23:05:12.596Z,55.50
2023-05-22T23:07:40.232Z,55.42
2023-05-22T23:10:08.042Z,55.63
2023-05-22T23:12:36.290Z,55.44
2023-05-22T23:15:04.192Z,55.41
2023-05-22T23:17:31.479Z,55.25
2023-05-22T23:19:58.888Z,55.34
2023-05-22T23:22:26.425Z,55.68
2023-05-22T23:24:53.593Z,55.62
2023-05-22T23:27:20.979Z,55.73
2023-05-22T23:29:48.462Z,55.78
2023-05-22T23:32:15.658Z,55.98
2023-05-22T23:34:43.243Z,56.09
2023-05-22T23:37:10.774Z,56.07
2023-05-22T23:39:38.906Z,56.03
2023-05-22T23:42:06.265Z,55.96
2023-05-22T23:44:33.868Z,56.05
2023-05-22T23:47:01.210Z,56.11
2023-05-22T23:49:28.765Z,55.94
2023-05-22T23:51:56.263Z,55.95
2023-05-22T23:54:23.505Z,56.31
2023-05-22T23:56:50.771Z,56.31
2023-05-22T23:59:18.270Z,56.27
